Aérodrome :
LOGIN :

S'inscrire | Disclaimer

   EN    FR    IT 

 










Légende :    VFR   VFR Marginal   IFR   IFR Intensif   IFR Très Intensif
Visi : 
Plafond : 
>= 8 km
>= 3000ft
5 à 8 km
1000 à 3000 ft
1500m à 5 km
500 à 1000 ft
800 à 1500m
200 à 500 ft
< 800m
< 200 ft
Symboles :   Orages  Brouillard  Fortes neiges  Fortes précipitations  Vent > 20 kt
SIGMETs :   Divers  Orages  Givrage  Turbulence  Onde Orograph.  Cendres Volcan.







- Altitude de l'aérodrome : 348 ft
- Code IATA : STN
- Voir les cartes d'approche


EGSS - London Stansted

DERNIER METAR :
  • 231620Z AUTO 24014KT 9999 NCD 15/06 Q1015

METARs EXPIRÉS :
  • 231550Z AUTO 24011KT 9999 NCD 15/06 Q1015
  • 231520Z AUTO 23014KT 9999 NCD 15/06 Q1015
  • 231450Z AUTO 24015KT 9999 NCD 14/06 Q1015
  • 231420Z AUTO 25014KT 9999 NCD 14/06 Q1015
  • 231350Z AUTO 25014KT 9999 NCD 14/06 Q1016

TAF TAF EGSS
Valide du 23 à 12h jusqu'au 24 à 18h UTC


231057Z 2312/2418 24010KT 9999 FEW035
PROB30
TEMPO 2322/2324 8000 -RA
BECMG 2400/2403 8000 -RA BKN012
TEMPO 2401/2410 4000 RADZ BKN006
PROB30
TEMPO 2403/2407 BKN004
TEMPO 2410/2413 9999 NSW SCT015
PROB30
TEMPO 2413/2418 BKN004
ATIS : +44 1279 669 325
Pas de NOTAMs connus pour ce terrain.



MET'MAP, la Météo Aéronautique d'un coup d'oeil ! - Copyright ORBIFLY Décembre 2007 - Disclaimer

ORBIFLY MET'MAP TEAM :

Programmation & Développement : Alexandra Zaïnal
Conception & Développement : Baudouin d'Aumeries
Co-Programmation & Développement : Marc-Olivier Méhu
Soutien technique & logistique : Manuel Goepfert

Contact : metmap@orbifly.com




SOURCES & CREDITS :

   NOAA